Time;durP1;ratioP1;P1;durP2;ratioP2;P2;SDS_P1;SDS_P2;PMS_P1;PMS_P2;Temp;Humidity;BMP_temperature;BMP_pressure;BME280_temperature;BME280_humidity;BME280_pressure;Samples;Min_cycle;Max_cycle;Signal;HPM_P1;HPM_P2
2021/05/23 00:01:10;;;;;;;0.10;0.10;;;;;;;;;;5126768;28;20226;-68
2021/05/23 00:03:36;;;;;;;0.10;0.10;;;;;;;;;;5126068;27;20200;-68
2021/05/23 00:06:02;;;;;;;0.10;0.10;;;;;;;;;;5126330;27;20210;-69
2021/05/23 00:08:29;;;;;;;0.10;0.10;;;;;;;;;;5126538;28;20209;-68
2021/05/23 00:10:57;;;;;;;0.10;0.10;;;;;;;;;;5124917;28;20206;-68
2021/05/23 00:13:25;;;;;;;0.10;0.10;;;;;;;;;;5125849;28;20342;-68
2021/05/23 00:15:51;;;;;;;0.10;0.10;;;;;;;;;;5126610;28;20402;-69
2021/05/23 00:18:18;;;;;;;0.10;0.10;;;;;;;;;;5125979;28;20209;-69
2021/05/23 00:20:44;;;;;;;0.10;0.10;;;;;;;;;;5126416;28;20384;-69
2021/05/23 00:23:11;;;;;;;0.10;0.10;;;;;;;;;;5126212;28;20230;-69
2021/05/23 00:25:37;;;;;;;0.10;0.10;;;;;;;;;;5126213;28;20477;-68
2021/05/23 00:28:03;;;;;;;0.10;0.10;;;;;;;;;;5124926;28;20401;-69
2021/05/23 00:30:29;;;;;;;0.10;0.10;;;;;;;;;;5125678;28;20201;-69
2021/05/23 00:32:55;;;;;;;0.10;0.10;;;;;;;;;;5125468;28;20233;-69
2021/05/23 00:35:21;;;;;;;0.10;0.10;;;;;;;;;;5125963;28;20232;-68
2021/05/23 00:37:48;;;;;;;0.10;0.10;;;;;;;;;;5115413;28;20202;-69
2021/05/23 00:40:14;;;;;;;0.10;0.10;;;;;;;;;;5125794;28;20204;-69
2021/05/23 00:42:40;;;;;;;0.10;0.10;;;;;;;;;;5125715;28;20223;-69
2021/05/23 00:45:07;;;;;;;0.10;0.10;;;;;;;;;;5125462;28;20563;-68
2021/05/23 00:47:32;;;;;;;0.10;0.10;;;;;;;;;;5125185;28;20208;-69
2021/05/23 00:49:58;;;;;;;0.10;0.10;;;;;;;;;;5134696;27;20208;-68
2021/05/23 00:52:24;;;;;;;0.10;0.10;;;;;;;;;;5128979;27;20212;-68
2021/05/23 00:54:50;;;;;;;0.10;0.10;;;;;;;;;;5125308;28;20265;-68
2021/05/23 00:57:16;;;;;;;0.10;0.10;;;;;;;;;;5125212;28;20256;-68
2021/05/23 00:59:42;;;;;;;0.10;0.10;;;;;;;;;;5124966;28;20199;-68
2021/05/23 01:02:21;;;;;;;0.10;0.10;;;;;;;;;;5125448;28;20254;-69
2021/05/23 01:04:46;;;;;;;0.10;0.10;;;;;;;;;;5117003;28;20375;-69
2021/05/23 01:07:12;;;;;;;0.10;0.10;;;;;;;;;;5125084;28;20205;-67
2021/05/23 01:09:38;;;;;;;0.10;0.10;;;;;;;;;;5125094;28;20228;-68
2021/05/23 01:12:25;;;;;;;0.10;0.10;;;;;;;;;;5124770;28;20214;-68
2021/05/23 01:14:53;;;;;;;0.10;0.10;;;;;;;;;;5125195;28;20212;-68
2021/05/23 01:17:21;;;;;;;0.10;0.10;;;;;;;;;;5125139;28;20200;-67
2021/05/23 01:19:56;;;;;;;0.13;0.13;;;;;;;;;;5124776;28;20211;-68
2021/05/23 01:22:28;;;;;;;0.10;0.10;;;;;;;;;;5124688;28;20420;-68
2021/05/23 01:25:01;;;;;;;0.10;0.10;;;;;;;;;;5125003;28;20238;-68
2021/05/23 01:27:34;;;;;;;0.10;0.10;;;;;;;;;;5124392;28;20193;-68
2021/05/23 01:30:00;;;;;;;0.10;0.10;;;;;;;;;;5130585;27;20201;-68
2021/05/23 01:32:26;;;;;;;0.10;0.10;;;;;;;;;;5124636;28;20232;-68
2021/05/23 01:34:52;;;;;;;0.10;0.10;;;;;;;;;;5124526;28;20225;-70
2021/05/23 01:37:21;;;;;;;0.10;0.10;;;;;;;;;;5124497;28;20205;-69
2021/05/23 01:39:47;;;;;;;0.17;0.17;;;;;;;;;;5124652;28;20382;-68
2021/05/23 01:42:13;;;;;;;0.10;0.10;;;;;;;;;;5124562;28;20202;-68
2021/05/23 01:44:39;;;;;;;0.10;0.10;;;;;;;;;;5117090;28;20256;-69
2021/05/23 01:47:05;;;;;;;0.10;0.10;;;;;;;;;;5118321;28;20482;-68
2021/05/23 01:49:31;;;;;;;0.10;0.10;;;;;;;;;;5124353;28;20204;-68
2021/05/23 01:51:56;;;;;;;0.10;0.10;;;;;;;;;;5123905;28;20272;-68
2021/05/23 01:54:22;;;;;;;0.10;0.10;;;;;;;;;;5124476;28;20259;-68
2021/05/23 01:56:48;;;;;;;0.10;0.10;;;;;;;;;;5124208;28;20266;-68
2021/05/23 01:59:14;;;;;;;0.10;0.10;;;;;;;;;;5124064;28;20212;-68
2021/05/23 02:01:40;;;;;;;0.10;0.10;;;;;;;;;;5125870;27;20210;-69
2021/05/23 02:04:06;;;;;;;0.10;0.10;;;;;;;;;;5123815;28;20208;-68
2021/05/23 02:06:31;;;;;;;0.10;0.10;;;;;;;;;;5125106;27;20244;-69
2021/05/23 02:08:57;;;;;;;0.10;0.10;;;;;;;;;;5137040;27;20252;-69
2021/05/23 02:11:23;;;;;;;0.10;0.10;;;;;;;;;;5123862;28;20218;-69
2021/05/23 02:13:51;;;;;;;0.10;0.10;;;;;;;;;;5123886;28;20224;-69
2021/05/23 02:16:18;;;;;;;0.10;0.10;;;;;;;;;;5124016;28;20205;-69
2021/05/23 02:18:44;;;;;;;0.10;0.10;;;;;;;;;;5124008;28;20228;-68
2021/05/23 02:21:10;;;;;;;0.10;0.10;;;;;;;;;;5123988;28;20210;-67
2021/05/23 02:23:35;;;;;;;0.10;0.10;;;;;;;;;;5123966;28;20390;-68
2021/05/23 02:26:01;;;;;;;0.10;0.10;;;;;;;;;;5123910;28;20242;-68
2021/05/23 02:28:27;;;;;;;0.10;0.10;;;;;;;;;;5123259;28;20435;-68
2021/05/23 02:30:54;;;;;;;0.10;0.10;;;;;;;;;;5123678;28;20246;-68
2021/05/23 02:33:21;;;;;;;0.10;0.10;;;;;;;;;;5123699;28;20226;-68
2021/05/23 02:35:49;;;;;;;0.10;0.10;;;;;;;;;;5123652;28;20214;-68
2021/05/23 02:38:16;;;;;;;0.10;0.10;;;;;;;;;;5123814;28;20204;-68
2021/05/23 02:40:42;;;;;;;0.10;0.10;;;;;;;;;;5123637;28;20204;-67
2021/05/23 02:43:08;;;;;;;0.10;0.10;;;;;;;;;;5123596;28;20430;-70
2021/05/23 02:45:34;;;;;;;0.10;0.10;;;;;;;;;;5123837;28;20208;-68
2021/05/23 02:48:00;;;;;;;0.10;0.10;;;;;;;;;;5123597;28;20207;-68
2021/05/23 02:50:28;;;;;;;0.10;0.10;;;;;;;;;;5123268;28;20201;-67
2021/05/23 02:52:53;;;;;;;0.10;0.10;;;;;;;;;;5123458;28;20218;-68
2021/05/23 02:55:19;;;;;;;0.10;0.10;;;;;;;;;;5123715;28;20488;-68
2021/05/23 02:57:45;;;;;;;0.10;0.10;;;;;;;;;;5115861;28;20361;-68
2021/05/23 03:00:12;;;;;;;0.10;0.10;;;;;;;;;;5123501;28;20317;-69
2021/05/23 03:02:38;;;;;;;0.10;0.10;;;;;;;;;;5123797;28;20400;-68
2021/05/23 03:05:05;;;;;;;6.70;2.30;;;;;;;;;;5123592;28;20208;-68
2021/05/23 03:07:35;;;;;;;0.10;0.10;;;;;;;;;;5123324;28;20206;-68
2021/05/23 03:10:01;;;;;;;0.10;0.10;;;;;;;;;;5123418;28;20286;-68
2021/05/23 03:12:27;;;;;;;0.10;0.10;;;;;;;;;;5123618;28;20275;-68
2021/05/23 03:14:52;;;;;;;0.10;0.10;;;;;;;;;;5123118;28;20273;-68
2021/05/23 03:17:18;;;;;;;0.10;0.10;;;;;;;;;;5123194;28;20207;-68
2021/05/23 03:19:44;;;;;;;0.17;0.17;;;;;;;;;;5123001;28;20272;-68
2021/05/23 03:22:10;;;;;;;0.10;0.10;;;;;;;;;;5122889;28;20211;-68
2021/05/23 03:24:36;;;;;;;0.10;0.10;;;;;;;;;;5123188;28;20246;-68
2021/05/23 03:27:02;;;;;;;0.10;0.10;;;;;;;;;;5123234;28;20208;-68
2021/05/23 03:29:28;;;;;;;0.10;0.10;;;;;;;;;;5122660;28;20240;-69
2021/05/23 03:31:53;;;;;;;0.10;0.10;;;;;;;;;;5122736;28;20229;-70
2021/05/23 03:34:19;;;;;;;0.10;0.10;;;;;;;;;;5124604;28;20284;-69
2021/05/23 03:36:45;;;;;;;0.10;0.10;;;;;;;;;;5126838;28;20211;-70
2021/05/23 03:39:11;;;;;;;0.10;0.10;;;;;;;;;;5126697;28;20200;-69
2021/05/23 03:41:37;;;;;;;0.10;0.10;;;;;;;;;;5115852;27;20212;-68
2021/05/23 03:44:03;;;;;;;0.10;0.10;;;;;;;;;;5125000;28;20211;-69
2021/05/23 03:46:29;;;;;;;0.10;0.10;;;;;;;;;;5127119;28;20202;-70
2021/05/23 03:48:55;;;;;;;0.10;0.10;;;;;;;;;;5126693;28;20452;-69
2021/05/23 03:51:20;;;;;;;0.10;0.10;;;;;;;;;;5127110;28;20202;-69
2021/05/23 03:53:46;;;;;;;0.10;0.10;;;;;;;;;;5126359;28;20221;-69
2021/05/23 03:56:12;;;;;;;0.13;0.13;;;;;;;;;;5126776;28;20203;-68
2021/05/23 03:58:38;;;;;;;0.10;0.10;;;;;;;;;;5126567;28;20206;-69
2021/05/23 04:01:04;;;;;;;0.10;0.10;;;;;;;;;;5126086;28;20207;-68
2021/05/23 04:03:30;;;;;;;0.10;0.10;;;;;;;;;;5125922;28;20257;-68
2021/05/23 04:05:57;;;;;;;0.10;0.10;;;;;;;;;;5125378;28;20208;-68
2021/05/23 04:08:23;;;;;;;0.10;0.10;;;;;;;;;;5125598;28;20528;-68
2021/05/23 04:10:51;;;;;;;0.10;0.10;;;;;;;;;;5125654;28;20217;-69
2021/05/23 04:13:19;;;;;;;0.10;0.10;;;;;;;;;;5125367;27;20464;-68
2021/05/23 04:15:46;;;;;;;0.10;0.10;;;;;;;;;;5126086;28;20208;-68
2021/05/23 04:18:11;;;;;;;0.10;0.10;;;;;;;;;;5126182;28;20207;-68
2021/05/23 04:20:37;;;;;;;0.10;0.10;;;;;;;;;;5126469;28;20194;-68
2021/05/23 04:23:03;;;;;;;0.10;0.10;;;;;;;;;;5126183;28;20369;-68
2021/05/23 04:25:29;;;;;;;0.10;0.10;;;;;;;;;;5131991;27;20244;-68
2021/05/23 04:27:55;;;;;;;0.10;0.10;;;;;;;;;;5128933;27;20550;-68
2021/05/23 04:30:22;;;;;;;0.10;0.10;;;;;;;;;;5125084;28;20202;-68
2021/05/23 04:32:48;;;;;;;0.10;0.10;;;;;;;;;;5119288;28;20224;-69
2021/05/23 04:35:15;;;;;;;0.10;0.10;;;;;;;;;;5122022;28;20284;-68
2021/05/23 04:37:41;;;;;;;0.10;0.10;;;;;;;;;;5125720;28;20227;-69
2021/05/23 04:40:08;;;;;;;0.10;0.10;;;;;;;;;;5125758;28;20296;-69
2021/05/23 04:42:34;;;;;;;0.10;0.10;;;;;;;;;;5125670;28;20207;-68
2021/05/23 04:44:59;;;;;;;0.10;0.10;;;;;;;;;;5125170;28;20219;-69
2021/05/23 04:47:27;;;;;;;0.10;0.10;;;;;;;;;;5125565;28;20246;-69
2021/05/23 04:49:54;;;;;;;0.10;0.10;;;;;;;;;;5125611;27;20275;-69
2021/05/23 04:52:19;;;;;;;0.10;0.10;;;;;;;;;;5125583;28;20248;-69
2021/05/23 04:54:45;;;;;;;0.10;0.10;;;;;;;;;;5125538;28;20405;-69
2021/05/23 04:57:11;;;;;;;0.10;0.10;;;;;;;;;;5126014;27;20412;-69
2021/05/23 04:59:37;;;;;;;0.10;0.10;;;;;;;;;;5125409;28;20244;-69
2021/05/23 05:02:03;;;;;;;0.10;0.10;;;;;;;;;;5125236;27;20525;-69
2021/05/23 05:04:29;;;;;;;0.10;0.10;;;;;;;;;;5128919;27;20207;-69
2021/05/23 05:06:55;;;;;;;0.10;0.10;;;;;;;;;;5125413;28;20419;-69
2021/05/23 05:09:21;;;;;;;0.10;0.10;;;;;;;;;;5125547;28;20208;-70
2021/05/23 05:11:47;;;;;;;0.10;0.10;;;;;;;;;;5125211;28;20475;-68
2021/05/23 05:14:13;;;;;;;0.10;0.10;;;;;;;;;;5125192;28;20220;-68
2021/05/23 05:16:40;;;;;;;0.10;0.10;;;;;;;;;;5124911;28;20229;-69
2021/05/23 05:19:06;;;;;;;0.10;0.10;;;;;;;;;;5124828;28;20195;-69
2021/05/23 05:21:31;;;;;;;0.10;0.10;;;;;;;;;;5125340;28;20211;-69
2021/05/23 05:23:58;;;;;;;0.10;0.10;;;;;;;;;;5132417;27;20202;-69
2021/05/23 05:26:24;;;;;;;0.10;0.10;;;;;;;;;;5127564;27;20206;-68
2021/05/23 05:28:50;;;;;;;0.10;0.10;;;;;;;;;;5124993;28;20205;-69
2021/05/23 05:31:15;;;;;;;0.10;0.10;;;;;;;;;;5124349;28;20414;-69
2021/05/23 05:33:41;;;;;;;0.10;0.10;;;;;;;;;;5124677;28;20245;-68
2021/05/23 05:36:07;;;;;;;0.10;0.10;;;;;;;;;;5124494;28;20208;-69
2021/05/23 05:38:33;;;;;;;0.10;0.10;;;;;;;;;;5124797;28;20202;-69
2021/05/23 05:40:59;;;;;;;0.10;0.10;;;;;;;;;;5129601;27;20208;-69
2021/05/23 05:43:25;;;;;;;0.10;0.10;;;;;;;;;;5114908;28;20211;-68
2021/05/23 05:45:51;;;;;;;0.10;0.10;;;;;;;;;;5124522;28;20308;-68
2021/05/23 05:48:17;;;;;;;0.10;0.10;;;;;;;;;;5124648;28;20223;-69
2021/05/23 05:50:43;;;;;;;0.10;0.10;;;;;;;;;;5125518;27;20421;-69
2021/05/23 05:53:09;;;;;;;0.10;0.10;;;;;;;;;;5118839;28;20399;-69
2021/05/23 05:55:34;;;;;;;0.10;0.10;;;;;;;;;;5128496;27;20245;-69
2021/05/23 05:58:01;;;;;;;0.10;0.10;;;;;;;;;;5123752;28;20200;-69
2021/05/23 06:00:27;;;;;;;0.10;0.10;;;;;;;;;;5124507;28;20208;-68
2021/05/23 06:02:52;;;;;;;0.10;0.10;;;;;;;;;;5124205;28;20549;-69
2021/05/23 06:05:18;;;;;;;0.10;0.10;;;;;;;;;;5124343;28;20492;-68
2021/05/23 06:07:44;;;;;;;0.10;0.10;;;;;;;;;;5123908;28;20500;-69
2021/05/23 06:10:11;;;;;;;0.10;0.10;;;;;;;;;;5124254;28;20239;-69
2021/05/23 06:12:36;;;;;;;0.10;0.10;;;;;;;;;;5124293;28;20485;-68
2021/05/23 06:15:03;;;;;;;0.10;0.10;;;;;;;;;;5123550;28;20296;-68
2021/05/23 06:17:29;;;;;;;0.10;0.10;;;;;;;;;;5124107;28;20208;-68
2021/05/23 06:19:55;;;;;;;0.10;0.10;;;;;;;;;;5124039;28;20207;-70
2021/05/23 06:22:20;;;;;;;0.10;0.10;;;;;;;;;;5124108;28;20203;-68
2021/05/23 06:24:46;;;;;;;0.10;0.10;;;;;;;;;;5123674;28;20208;-69
2021/05/23 06:27:12;;;;;;;0.10;0.10;;;;;;;;;;5123715;28;20209;-70
2021/05/23 06:29:38;;;;;;;0.10;0.10;;;;;;;;;;5124193;28;20220;-67
2021/05/23 06:32:06;;;;;;;0.10;0.10;;;;;;;;;;5123444;28;20227;-69
2021/05/23 06:34:32;;;;;;;0.10;0.10;;;;;;;;;;5118547;28;20318;-68
2021/05/23 06:36:57;;;;;;;0.10;0.10;;;;;;;;;;5132363;27;20201;-69
2021/05/23 06:39:23;;;;;;;0.10;0.10;;;;;;;;;;5123672;28;20228;-70
2021/05/23 06:41:49;;;;;;;0.13;0.13;;;;;;;;;;5123779;28;20209;-68
2021/05/23 06:44:15;;;;;;;0.10;0.10;;;;;;;;;;5123275;28;20207;-70
2021/05/23 06:46:41;;;;;;;0.10;0.10;;;;;;;;;;5123570;28;20210;-68
2021/05/23 06:49:08;;;;;;;0.10;0.10;;;;;;;;;;5123289;28;20506;-68
2021/05/23 06:51:34;;;;;;;0.10;0.10;;;;;;;;;;5128960;28;20203;-68
2021/05/23 06:54:00;;;;;;;0.10;0.10;;;;;;;;;;5129413;28;20223;-69
2021/05/23 06:56:25;;;;;;;0.10;0.10;;;;;;;;;;5123249;28;20458;-68
2021/05/23 06:58:51;;;;;;;0.10;0.10;;;;;;;;;;5123512;28;20313;-69
2021/05/23 07:01:17;;;;;;;0.10;0.10;;;;;;;;;;5123243;28;20209;-68
2021/05/23 07:03:43;;;;;;;0.10;0.10;;;;;;;;;;5127692;28;20433;-68
2021/05/23 07:06:09;;;;;;;0.10;0.10;;;;;;;;;;5123354;28;20202;-68
2021/05/23 07:08:35;;;;;;;0.10;0.10;;;;;;;;;;5125527;28;20202;-68
2021/05/23 07:11:01;;;;;;;0.10;0.10;;;;;;;;;;5127888;28;20247;-69
2021/05/23 07:13:27;;;;;;;0.10;0.10;;;;;;;;;;5127980;27;20276;-68
2021/05/23 07:15:53;;;;;;;0.10;0.10;;;;;;;;;;5133398;27;20210;-68
2021/05/23 07:18:19;;;;;;;0.10;0.10;;;;;;;;;;5134494;27;20218;-69
2021/05/23 07:20:46;;;;;;;0.10;0.10;;;;;;;;;;5126822;28;20200;-67
2021/05/23 07:23:13;;;;;;;0.10;0.10;;;;;;;;;;5129994;27;20202;-68
2021/05/23 07:25:39;;;;;;;0.10;0.10;;;;;;;;;;5134656;27;20547;-68
2021/05/23 07:28:05;;;;;;;0.10;0.10;;;;;;;;;;5127242;27;20209;-68
2021/05/23 07:30:31;;;;;;;0.10;0.10;;;;;;;;;;5127330;27;20247;-68
2021/05/23 07:32:56;;;;;;;0.10;0.10;;;;;;;;;;5127312;28;20229;-68
2021/05/23 07:35:22;;;;;;;0.10;0.10;;;;;;;;;;5131871;27;20226;-69
2021/05/23 07:37:48;;;;;;;0.10;0.10;;;;;;;;;;5128027;27;20200;-68
2021/05/23 07:40:15;;;;;;;0.10;0.10;;;;;;;;;;5127191;28;20232;-68
2021/05/23 07:42:42;;;;;;;0.10;0.10;;;;;;;;;;5126620;28;20211;-68
2021/05/23 07:45:09;;;;;;;0.10;0.10;;;;;;;;;;5131937;27;20206;-68
2021/05/23 07:47:35;;;;;;;0.10;0.10;;;;;;;;;;5133975;27;20203;-67
2021/05/23 07:50:00;;;;;;;0.10;0.10;;;;;;;;;;5138973;27;20496;-69
2021/05/23 07:52:26;;;;;;;0.10;0.10;;;;;;;;;;5125203;27;20205;-69
2021/05/23 07:54:52;;;;;;;0.10;0.10;;;;;;;;;;5125942;28;20296;-70
2021/05/23 07:57:19;;;;;;;0.10;0.10;;;;;;;;;;5129209;27;20204;-67
2021/05/23 07:59:44;;;;;;;0.10;0.10;;;;;;;;;;5131665;27;20209;-69
2021/05/23 08:02:10;;;;;;;0.10;0.10;;;;;;;;;;5124095;27;20211;-67
2021/05/23 08:04:36;;;;;;;0.10;0.10;;;;;;;;;;5131786;27;20205;-69
2021/05/23 08:07:02;;;;;;;0.10;0.10;;;;;;;;;;5126712;28;20203;-69
2021/05/23 08:09:28;;;;;;;0.10;0.10;;;;;;;;;;5126510;28;20201;-67
2021/05/23 08:11:53;;;;;;;0.10;0.10;;;;;;;;;;5125248;28;20378;-69
2021/05/23 08:14:20;;;;;;;0.10;0.10;;;;;;;;;;5125977;28;20415;-68
2021/05/23 08:16:47;;;;;;;0.10;0.10;;;;;;;;;;5126345;28;20217;-63
2021/05/23 08:19:13;;;;;;;0.10;0.10;;;;;;;;;;5132672;27;20248;-64
2021/05/23 08:21:39;;;;;;;0.10;0.10;;;;;;;;;;5125789;28;20198;-65
2021/05/23 08:24:05;;;;;;;0.10;0.10;;;;;;;;;;5129768;27;20207;-67
2021/05/23 08:26:31;;;;;;;0.10;0.10;;;;;;;;;;5127733;27;20213;-66
2021/05/23 08:28:57;;;;;;;0.10;0.10;;;;;;;;;;5122280;28;20484;-67
2021/05/23 08:31:24;;;;;;;0.10;0.10;;;;;;;;;;5115488;28;20538;-67
2021/05/23 08:33:50;;;;;;;0.10;0.10;;;;;;;;;;5123855;27;20267;-75
2021/05/23 08:36:16;;;;;;;0.10;0.10;;;;;;;;;;5122973;27;20201;-75
2021/05/23 08:38:42;;;;;;;0.10;0.10;;;;;;;;;;5128854;27;20210;-72
2021/05/23 08:41:08;;;;;;;0.10;0.10;;;;;;;;;;5128540;27;20202;-76
2021/05/23 08:43:34;;;;;;;0.10;0.10;;;;;;;;;;5125522;28;20208;-72
2021/05/23 08:46:01;;;;;;;0.10;0.10;;;;;;;;;;5125589;27;20202;-75
2021/05/23 08:48:27;;;;;;;0.10;0.10;;;;;;;;;;5123157;27;20211;-76
2021/05/23 08:50:54;;;;;;;0.10;0.10;;;;;;;;;;5128305;27;20210;-74
2021/05/23 08:53:19;;;;;;;0.10;0.10;;;;;;;;;;5124134;27;20211;-74
2021/05/23 08:55:45;;;;;;;0.10;0.10;;;;;;;;;;5126804;27;20209;-74
2021/05/23 08:58:11;;;;;;;0.10;0.10;;;;;;;;;;5124003;28;20243;-73
2021/05/23 09:00:38;;;;;;;0.10;0.10;;;;;;;;;;5127216;27;20229;-74
2021/05/23 09:03:04;;;;;;;0.00;0.00;;;;;;;;;;5128467;27;20225;-75
2021/05/23 09:05:32;;;;;;;0.10;0.10;;;;;;;;;;5132108;27;20207;-75
2021/05/23 09:07:58;;;;;;;0.10;0.10;;;;;;;;;;5125315;28;20214;-73
2021/05/23 09:10:25;;;;;;;0.10;0.10;;;;;;;;;;5124616;28;20201;-74
2021/05/23 09:12:51;;;;;;;0.10;0.10;;;;;;;;;;5120130;28;20266;-74
2021/05/23 09:15:17;;;;;;;0.10;0.10;;;;;;;;;;5126642;27;20242;-69
2021/05/23 09:17:43;;;;;;;0.10;0.10;;;;;;;;;;5121603;27;20255;-71
2021/05/23 09:20:15;;;;;;;0.10;0.10;;;;;;;;;;5124487;28;20194;-68
2021/05/23 09:22:42;;;;;;;0.10;0.10;;;;;;;;;;5127528;27;20204;-68
2021/05/23 09:25:09;;;;;;;0.10;0.10;;;;;;;;;;5117328;27;20383;-68
2021/05/23 09:27:42;;;;;;;0.10;0.10;;;;;;;;;;5121910;27;20201;-70
2021/05/23 09:30:11;;;;;;;0.10;0.10;;;;;;;;;;5124655;27;20204;-68
2021/05/23 09:32:37;;;;;;;0.10;0.10;;;;;;;;;;5118394;27;20296;-77
2021/05/23 09:35:05;;;;;;;0.10;0.10;;;;;;;;;;5130178;27;20220;-75
2021/05/23 09:37:30;;;;;;;0.10;0.10;;;;;;;;;;5123456;27;20228;-78
2021/05/23 09:39:57;;;;;;;0.10;0.10;;;;;;;;;;5115454;28;20219;-78
2021/05/23 09:42:24;;;;;;;0.10;0.10;;;;;;;;;;5123006;28;20491;-72
2021/05/23 09:44:50;;;;;;;0.10;0.10;;;;;;;;;;5131673;27;20247;-70
2021/05/23 09:47:16;;;;;;;0.10;0.10;;;;;;;;;;5134359;27;20201;-73
2021/05/23 09:49:50;;;;;;;0.10;0.10;;;;;;;;;;5125128;27;20247;-73
2021/05/23 09:52:17;;;;;;;0.00;0.00;;;;;;;;;;5123243;28;20215;-73
2021/05/23 09:54:44;;;;;;;0.10;0.10;;;;;;;;;;5121393;27;20460;-75
2021/05/23 09:57:12;;;;;;;0.10;0.10;;;;;;;;;;5125795;27;20225;-77
2021/05/23 09:59:38;;;;;;;0.10;0.10;;;;;;;;;;5125057;28;20258;-75
2021/05/23 10:02:04;;;;;;;0.10;0.10;;;;;;;;;;5124825;28;20407;-72
2021/05/23 10:04:30;;;;;;;0.07;0.07;;;;;;;;;;5122589;27;20399;-71
2021/05/23 10:06:57;;;;;;;0.10;0.10;;;;;;;;;;5129177;27;20243;-75
2021/05/23 10:09:24;;;;;;;0.10;0.10;;;;;;;;;;5125088;28;20524;-77
2021/05/23 10:11:50;;;;;;;0.10;0.10;;;;;;;;;;5126249;27;20208;-74
2021/05/23 10:14:16;;;;;;;0.10;0.10;;;;;;;;;;5125680;27;20238;-75
2021/05/23 10:16:42;;;;;;;0.10;0.10;;;;;;;;;;5134951;27;20569;-73
2021/05/23 10:19:08;;;;;;;0.10;0.10;;;;;;;;;;5124285;28;20213;-72
2021/05/23 10:21:34;;;;;;;0.10;0.10;;;;;;;;;;5126454;27;20211;-75
2021/05/23 10:24:03;;;;;;;0.00;0.00;;;;;;;;;;5129623;27;20257;-76
2021/05/23 10:26:30;;;;;;;0.10;0.10;;;;;;;;;;5122910;28;20202;-77
2021/05/23 10:28:58;;;;;;;0.10;0.10;;;;;;;;;;5125716;27;20480;-74
2021/05/23 10:31:29;;;;;;;0.10;0.10;;;;;;;;;;5120020;28;20245;-76
2021/05/23 10:33:55;;;;;;;0.10;0.10;;;;;;;;;;5128347;27;20517;-78
2021/05/23 10:36:30;;;;;;;0.10;0.10;;;;;;;;;;5121903;28;20210;-77
2021/05/23 10:38:56;;;;;;;0.10;0.10;;;;;;;;;;5125666;27;20200;-75
2021/05/23 10:41:22;;;;;;;0.10;0.10;;;;;;;;;;5120451;28;20201;-75
2021/05/23 10:43:56;;;;;;;0.00;0.00;;;;;;;;;;5126679;27;20220;-74
2021/05/23 10:52:29;;;;;;;0.10;0.10;;;;;;;;;;5119749;28;20180;-75
2021/05/23 10:54:59;;;;;;;0.20;0.20;;;;;;;;;;5118937;28;20225;-77
2021/05/23 10:57:25;;;;;;;0.10;0.10;;;;;;;;;;5125313;28;20569;-72
2021/05/23 10:59:58;;;;;;;0.00;0.00;;;;;;;;;;5120639;28;20205;-75
2021/05/23 11:02:34;;;;;;;0.10;0.10;;;;;;;;;;5119885;28;20221;-73
2021/05/23 11:05:00;;;;;;;0.10;0.10;;;;;;;;;;5122417;28;20228;-74
2021/05/23 11:07:26;;;;;;;0.03;0.03;;;;;;;;;;5121898;28;20241;-73
2021/05/23 11:09:52;;;;;;;0.00;0.00;;;;;;;;;;5132739;28;20202;-75
2021/05/23 11:12:19;;;;;;;0.30;0.30;;;;;;;;;;5120537;28;20203;-73
2021/05/23 11:14:52;;;;;;;0.10;0.10;;;;;;;;;;5123497;28;20220;-71
2021/05/23 11:17:20;;;;;;;0.10;0.10;;;;;;;;;;5119230;28;20502;-78
2021/05/23 11:19:46;;;;;;;0.10;0.10;;;;;;;;;;5123347;28;20213;-79
2021/05/23 11:22:12;;;;;;;0.00;0.00;;;;;;;;;;5126410;28;20290;-78
2021/05/23 11:24:38;;;;;;;0.03;0.03;;;;;;;;;;5119661;28;20487;-76
2021/05/23 11:27:11;;;;;;;0.10;0.10;;;;;;;;;;5123550;28;20199;-79
2021/05/23 11:29:37;;;;;;;0.10;0.10;;;;;;;;;;5118608;28;20200;-79
2021/05/23 11:32:10;;;;;;;0.10;0.10;;;;;;;;;;5120543;28;20224;-75
2021/05/23 11:34:36;;;;;;;0.10;0.10;;;;;;;;;;5124565;28;20218;-75
2021/05/23 11:37:02;;;;;;;0.10;0.10;;;;;;;;;;5123879;28;20278;-76
2021/05/23 11:39:30;;;;;;;0.10;0.10;;;;;;;;;;5121668;28;20223;-75
2021/05/23 11:41:57;;;;;;;0.10;0.10;;;;;;;;;;5122538;28;20249;-74
2021/05/23 11:44:33;;;;;;;0.10;0.10;;;;;;;;;;5117751;28;20252;-74
2021/05/23 11:46:59;;;;;;;0.10;0.10;;;;;;;;;;5124854;28;20200;-74
2021/05/23 11:49:27;;;;;;;0.10;0.10;;;;;;;;;;5122151;28;20204;-72
2021/05/23 11:51:56;;;;;;;0.10;0.10;;;;;;;;;;5123245;28;20489;-72
2021/05/23 11:54:22;;;;;;;0.10;0.10;;;;;;;;;;5121532;28;20227;-72
2021/05/23 11:56:48;;;;;;;0.10;0.10;;;;;;;;;;5133237;27;20318;-74
2021/05/23 11:59:14;;;;;;;0.00;0.00;;;;;;;;;;5132519;27;20208;-73
2021/05/23 12:01:46;;;;;;;0.10;0.10;;;;;;;;;;5126415;28;20488;-77
2021/05/23 12:04:12;;;;;;;0.10;0.10;;;;;;;;;;5123061;28;20413;-75
2021/05/23 12:06:40;;;;;;;0.00;0.00;;;;;;;;;;5126228;28;20386;-73
2021/05/23 12:09:10;;;;;;;0.00;0.00;;;;;;;;;;5128004;27;20214;-66
2021/05/23 12:11:40;;;;;;;0.10;0.10;;;;;;;;;;5130180;27;20380;-68
2021/05/23 12:14:17;;;;;;;0.00;0.00;;;;;;;;;;5126537;28;20216;-68
2021/05/23 12:16:44;;;;;;;0.05;0.05;;;;;;;;;;5127395;27;20209;-68
2021/05/23 12:19:10;;;;;;;0.03;0.03;;;;;;;;;;5134084;27;20218;-66
2021/05/23 12:21:35;;;;;;;0.00;0.00;;;;;;;;;;5129825;27;20204;-66
2021/05/23 12:24:01;;;;;;;0.00;0.00;;;;;;;;;;5134440;27;20362;-66
2021/05/23 12:26:29;;;;;;;0.10;0.10;;;;;;;;;;5137315;27;20233;-67
2021/05/23 12:28:54;;;;;;;0.10;0.10;;;;;;;;;;5128521;27;20200;-66
2021/05/23 12:31:21;;;;;;;0.10;0.10;;;;;;;;;;5125977;28;20285;-71
2021/05/23 12:33:49;;;;;;;0.00;0.00;;;;;;;;;;5125942;28;20542;-71
2021/05/23 12:36:15;;;;;;;0.10;0.10;;;;;;;;;;5125898;28;20208;-70
2021/05/23 12:38:41;;;;;;;0.07;0.07;;;;;;;;;;5115663;28;20211;-70
2021/05/23 12:41:11;;;;;;;0.00;0.00;;;;;;;;;;5127389;27;20208;-70
2021/05/23 12:43:39;;;;;;;0.10;0.10;;;;;;;;;;5127689;27;20257;-71
2021/05/23 12:46:06;;;;;;;0.10;0.10;;;;;;;;;;5126777;27;20210;-72
2021/05/23 12:48:32;;;;;;;0.10;0.10;;;;;;;;;;5133814;27;20201;-70
2021/05/23 12:51:01;;;;;;;0.10;0.10;;;;;;;;;;5124293;27;20472;-71
2021/05/23 12:53:28;;;;;;;0.10;0.10;;;;;;;;;;5122478;27;20471;-72
2021/05/23 12:55:54;;;;;;;0.10;0.10;;;;;;;;;;5120792;28;20226;-73
2021/05/23 12:58:20;;;;;;;0.10;0.10;;;;;;;;;;5134128;27;20211;-68
2021/05/23 13:00:47;;;;;;;0.00;0.00;;;;;;;;;;5122006;28;20444;-68
2021/05/23 13:03:13;;;;;;;0.10;0.10;;;;;;;;;;5125132;28;20202;-69
2021/05/23 13:05:50;;;;;;;0.10;0.10;;;;;;;;;;5134318;27;20363;-68
2021/05/23 13:08:17;;;;;;;0.10;0.10;;;;;;;;;;5133397;27;20543;-74
2021/05/23 13:10:44;;;;;;;0.07;0.07;;;;;;;;;;5128828;27;20206;-73
2021/05/23 13:13:10;;;;;;;0.10;0.10;;;;;;;;;;5126595;27;20203;-74
2021/05/23 13:15:36;;;;;;;0.10;0.10;;;;;;;;;;5124786;28;20574;-72
2021/05/23 13:18:02;;;;;;;0.00;0.00;;;;;;;;;;5114620;28;20212;-72
2021/05/23 13:20:29;;;;;;;0.10;0.10;;;;;;;;;;5121612;28;20197;-73
2021/05/23 13:22:55;;;;;;;0.10;0.10;;;;;;;;;;5124995;28;20204;-70
2021/05/23 13:25:22;;;;;;;0.10;0.10;;;;;;;;;;5129658;27;20428;-72
2021/05/23 13:27:49;;;;;;;0.10;0.10;;;;;;;;;;5125158;28;20237;-74
2021/05/23 13:30:16;;;;;;;0.00;0.00;;;;;;;;;;5127948;27;20271;-74
2021/05/23 13:32:41;;;;;;;0.10;0.10;;;;;;;;;;5120917;28;20224;-73
2021/05/23 13:35:07;;;;;;;0.20;0.20;;;;;;;;;;5116157;28;20262;-74
2021/05/23 13:37:33;;;;;;;0.10;0.10;;;;;;;;;;5189911;22;20431;-71
2021/05/23 13:39:59;;;;;;;0.10;0.10;;;;;;;;;;5096384;28;20375;-76
2021/05/23 13:42:25;;;;;;;0.00;0.00;;;;;;;;;;5098927;28;20493;-73
2021/05/23 13:44:51;;;;;;;0.10;0.10;;;;;;;;;;5102220;28;20266;-74
2021/05/23 13:47:19;;;;;;;0.10;0.10;;;;;;;;;;5102595;28;20209;-73
2021/05/23 13:49:45;;;;;;;0.10;0.10;;;;;;;;;;5098408;28;20202;-73
2021/05/23 13:52:12;;;;;;;0.10;0.10;;;;;;;;;;5099390;28;20249;-74
2021/05/23 13:54:38;;;;;;;0.10;0.10;;;;;;;;;;5102612;28;20293;-73
2021/05/23 13:57:04;;;;;;;0.10;0.10;;;;;;;;;;5103476;28;20200;-74
2021/05/23 13:59:31;;;;;;;0.10;0.10;;;;;;;;;;5100169;28;20201;-78
2021/05/23 14:01:57;;;;;;;0.10;0.10;;;;;;;;;;5103840;28;20209;-77
2021/05/23 14:04:24;;;;;;;0.07;0.07;;;;;;;;;;5102865;28;20277;-76
2021/05/23 14:06:50;;;;;;;0.03;0.03;;;;;;;;;;5104140;28;20350;-78
2021/05/23 14:09:18;;;;;;;0.10;0.10;;;;;;;;;;5102109;28;20203;-77
2021/05/23 14:11:44;;;;;;;0.10;0.10;;;;;;;;;;5100223;28;20269;-77
2021/05/23 14:14:10;;;;;;;0.10;0.10;;;;;;;;;;5096600;28;20227;-77
2021/05/23 14:16:37;;;;;;;0.10;0.10;;;;;;;;;;5102764;28;20210;-76
2021/05/23 14:19:03;;;;;;;0.03;0.03;;;;;;;;;;5098564;28;20280;-76
2021/05/23 14:21:29;;;;;;;0.00;0.00;;;;;;;;;;5100276;28;20208;-80
2021/05/23 14:23:55;;;;;;;0.10;0.10;;;;;;;;;;5100357;28;20210;-67
2021/05/23 14:26:21;;;;;;;0.10;0.10;;;;;;;;;;5097579;28;20430;-68
2021/05/23 14:28:47;;;;;;;0.10;0.10;;;;;;;;;;5102297;28;20216;-67
2021/05/23 14:31:14;;;;;;;0.10;0.10;;;;;;;;;;5102185;28;20207;-69
2021/05/23 14:33:43;;;;;;;0.10;0.10;;;;;;;;;;5100048;28;20230;-70
2021/05/23 14:36:09;;;;;;;0.10;0.10;;;;;;;;;;5102414;28;20436;-72
2021/05/23 14:38:35;;;;;;;0.07;0.07;;;;;;;;;;5094426;28;20305;-69
2021/05/23 14:41:01;;;;;;;0.10;0.10;;;;;;;;;;5089566;28;20227;-68
2021/05/23 14:43:31;;;;;;;0.10;0.10;;;;;;;;;;5088866;28;20332;-69
2021/05/23 14:45:57;;;;;;;0.10;0.10;;;;;;;;;;5076128;28;20351;-68